sensor_id;sensor_type;location;lat;lon;timestamp;P1;durP1;ratioP1;P2;durP2;ratioP2
10511;SDS011;5304;48.604;2.096;2023-04-01T00:01:43;9.33;;;2.67;;
10511;SDS011;5304;48.604;2.096;2023-04-01T00:04:27;7.43;;;2.60;;
10511;SDS011;5304;48.604;2.096;2023-04-01T00:07:11;6.63;;;2.30;;
10511;SDS011;5304;48.604;2.096;2023-04-01T00:09:56;13.83;;;3.30;;
10511;SDS011;5304;48.604;2.096;2023-04-01T00:12:41;12.83;;;2.23;;
10511;SDS011;5304;48.604;2.096;2023-04-01T00:15:25;12.67;;;2.70;;
10511;SDS011;5304;48.604;2.096;2023-04-01T00:18:10;11.20;;;2.50;;
10511;SDS011;5304;48.604;2.096;2023-04-01T00:20:54;7.10;;;2.80;;
10511;SDS011;5304;48.604;2.096;2023-04-01T00:23:39;9.73;;;2.30;;
10511;SDS011;5304;48.604;2.096;2023-04-01T00:26:24;11.87;;;2.63;;
10511;SDS011;5304;48.604;2.096;2023-04-01T00:29:08;14.63;;;2.93;;
10511;SDS011;5304;48.604;2.096;2023-04-01T00:31:53;9.13;;;3.07;;
10511;SDS011;5304;48.604;2.096;2023-04-01T00:34:37;8.23;;;2.37;;
10511;SDS011;5304;48.604;2.096;2023-04-01T00:37:23;6.17;;;2.10;;
10511;SDS011;5304;48.604;2.096;2023-04-01T00:40:08;6.03;;;2.10;;
10511;SDS011;5304;48.604;2.096;2023-04-01T00:43:11;11.67;;;2.10;;
10511;SDS011;5304;48.604;2.096;2023-04-01T00:45:59;8.13;;;1.60;;
10511;SDS011;5304;48.604;2.096;2023-04-01T00:48:44;6.60;;;2.03;;
10511;SDS011;5304;48.604;2.096;2023-04-01T00:51:31;8.07;;;2.13;;
10511;SDS011;5304;48.604;2.096;2023-04-01T00:54:19;8.67;;;2.00;;
10511;SDS011;5304;48.604;2.096;2023-04-01T00:57:13;7.93;;;1.87;;
10511;SDS011;5304;48.604;2.096;2023-04-01T01:00:06;4.57;;;1.63;;
10511;SDS011;5304;48.604;2.096;2023-04-01T01:02:55;8.40;;;2.07;;
10511;SDS011;5304;48.604;2.096;2023-04-01T01:12:34;8.53;;;2.17;;
10511;SDS011;5304;48.604;2.096;2023-04-01T01:24:50;8.90;;;2.20;;
10511;SDS011;5304;48.604;2.096;2023-04-01T01:28:59;11.60;;;2.13;;
10511;SDS011;5304;48.604;2.096;2023-04-01T01:31:12;9.40;;;2.00;;
10511;SDS011;5304;48.604;2.096;2023-04-01T01:37:17;8.90;;;2.37;;
10511;SDS011;5304;48.604;2.096;2023-04-01T01:40:06;5.23;;;2.27;;
10511;SDS011;5304;48.604;2.096;2023-04-01T01:42:53;9.10;;;1.80;;
10511;SDS011;5304;48.604;2.096;2023-04-01T01:45:45;12.03;;;2.20;;
10511;SDS011;5304;48.604;2.096;2023-04-01T01:48:33;7.03;;;1.43;;
10511;SDS011;5304;48.604;2.096;2023-04-01T01:51:19;4.47;;;1.97;;
10511;SDS011;5304;48.604;2.096;2023-04-01T01:54:05;7.70;;;2.20;;
10511;SDS011;5304;48.604;2.096;2023-04-01T01:56:51;8.43;;;1.63;;
10511;SDS011;5304;48.604;2.096;2023-04-01T01:59:42;4.47;;;2.13;;
10511;SDS011;5304;48.604;2.096;2023-04-01T02:02:29;6.47;;;1.50;;
10511;SDS011;5304;48.604;2.096;2023-04-01T02:05:16;5.23;;;1.80;;
10511;SDS011;5304;48.604;2.096;2023-04-01T02:11:30;4.67;;;1.37;;
10511;SDS011;5304;48.604;2.096;2023-04-01T02:14:41;5.63;;;1.97;;
10511;SDS011;5304;48.604;2.096;2023-04-01T02:17:40;7.00;;;2.23;;
10511;SDS011;5304;48.604;2.096;2023-04-01T02:20:28;5.43;;;1.80;;
10511;SDS011;5304;48.604;2.096;2023-04-01T02:23:13;4.33;;;1.50;;
10511;SDS011;5304;48.604;2.096;2023-04-01T02:25:58;6.53;;;1.53;;
10511;SDS011;5304;48.604;2.096;2023-04-01T02:28:43;8.10;;;1.80;;
10511;SDS011;5304;48.604;2.096;2023-04-01T02:31:30;4.00;;;1.30;;
10511;SDS011;5304;48.604;2.096;2023-04-01T02:34:15;5.07;;;1.50;;
10511;SDS011;5304;48.604;2.096;2023-04-01T02:37:00;5.10;;;1.60;;
10511;SDS011;5304;48.604;2.096;2023-04-01T02:39:45;3.57;;;1.47;;
10511;SDS011;5304;48.604;2.096;2023-04-01T02:42:29;3.73;;;1.67;;
10511;SDS011;5304;48.604;2.096;2023-04-01T02:45:14;3.90;;;1.37;;
10511;SDS011;5304;48.604;2.096;2023-04-01T02:47:58;5.60;;;1.67;;
10511;SDS011;5304;48.604;2.096;2023-04-01T02:50:43;7.00;;;1.93;;
10511;SDS011;5304;48.604;2.096;2023-04-01T02:53:27;5.10;;;1.60;;
10511;SDS011;5304;48.604;2.096;2023-04-01T02:56:12;6.40;;;1.60;;
10511;SDS011;5304;48.604;2.096;2023-04-01T02:58:56;8.30;;;1.40;;
10511;SDS011;5304;48.604;2.096;2023-04-01T03:01:40;5.07;;;1.73;;
10511;SDS011;5304;48.604;2.096;2023-04-01T03:04:25;7.80;;;1.63;;
10511;SDS011;5304;48.604;2.096;2023-04-01T03:07:09;4.97;;;1.43;;
10511;SDS011;5304;48.604;2.096;2023-04-01T03:09:54;4.40;;;1.40;;
10511;SDS011;5304;48.604;2.096;2023-04-01T03:12:38;8.67;;;1.37;;
10511;SDS011;5304;48.604;2.096;2023-04-01T03:15:23;5.83;;;2.20;;
10511;SDS011;5304;48.604;2.096;2023-04-01T03:18:08;3.40;;;1.70;;
10511;SDS011;5304;48.604;2.096;2023-04-01T03:20:52;4.67;;;1.33;;
10511;SDS011;5304;48.604;2.096;2023-04-01T03:23:37;7.83;;;1.70;;
10511;SDS011;5304;48.604;2.096;2023-04-01T03:26:21;5.33;;;1.70;;
10511;SDS011;5304;48.604;2.096;2023-04-01T03:29:06;3.43;;;1.40;;
10511;SDS011;5304;48.604;2.096;2023-04-01T03:31:51;5.60;;;1.57;;
10511;SDS011;5304;48.604;2.096;2023-04-01T03:34:35;4.20;;;2.13;;
10511;SDS011;5304;48.604;2.096;2023-04-01T03:37:20;6.67;;;1.73;;
10511;SDS011;5304;48.604;2.096;2023-04-01T03:40:04;7.33;;;1.90;;
10511;SDS011;5304;48.604;2.096;2023-04-01T03:42:49;4.80;;;1.50;;
10511;SDS011;5304;48.604;2.096;2023-04-01T03:45:34;4.10;;;1.40;;
10511;SDS011;5304;48.604;2.096;2023-04-01T03:48:18;8.47;;;1.87;;
10511;SDS011;5304;48.604;2.096;2023-04-01T03:51:06;1.73;;;1.13;;
10511;SDS011;5304;48.604;2.096;2023-04-01T03:53:51;6.93;;;1.47;;
10511;SDS011;5304;48.604;2.096;2023-04-01T03:56:36;4.30;;;1.60;;
10511;SDS011;5304;48.604;2.096;2023-04-01T03:59:21;5.10;;;1.13;;
10511;SDS011;5304;48.604;2.096;2023-04-01T04:02:05;7.73;;;1.60;;
10511;SDS011;5304;48.604;2.096;2023-04-01T04:04:49;6.07;;;1.93;;
10511;SDS011;5304;48.604;2.096;2023-04-01T04:07:34;11.77;;;1.87;;
10511;SDS011;5304;48.604;2.096;2023-04-01T04:10:19;5.67;;;1.67;;
10511;SDS011;5304;48.604;2.096;2023-04-01T04:13:03;6.90;;;1.77;;
10511;SDS011;5304;48.604;2.096;2023-04-01T04:15:49;3.60;;;1.77;;
10511;SDS011;5304;48.604;2.096;2023-04-01T04:18:33;3.27;;;1.50;;
10511;SDS011;5304;48.604;2.096;2023-04-01T04:21:18;3.57;;;1.63;;
10511;SDS011;5304;48.604;2.096;2023-04-01T04:24:03;2.57;;;1.03;;
10511;SDS011;5304;48.604;2.096;2023-04-01T04:26:47;6.00;;;1.67;;
10511;SDS011;5304;48.604;2.096;2023-04-01T04:29:31;5.53;;;1.70;;
10511;SDS011;5304;48.604;2.096;2023-04-01T04:32:16;9.13;;;1.33;;
10511;SDS011;5304;48.604;2.096;2023-04-01T04:35:00;2.83;;;1.50;;
10511;SDS011;5304;48.604;2.096;2023-04-01T04:37:45;1.57;;;0.83;;
10511;SDS011;5304;48.604;2.096;2023-04-01T04:40:29;4.03;;;1.50;;
10511;SDS011;5304;48.604;2.096;2023-04-01T04:43:14;4.77;;;2.13;;
10511;SDS011;5304;48.604;2.096;2023-04-01T04:46:03;4.03;;;1.47;;
10511;SDS011;5304;48.604;2.096;2023-04-01T04:48:51;5.60;;;1.47;;
10511;SDS011;5304;48.604;2.096;2023-04-01T04:51:35;4.53;;;1.40;;
10511;SDS011;5304;48.604;2.096;2023-04-01T04:54:20;5.47;;;1.87;;
10511;SDS011;5304;48.604;2.096;2023-04-01T04:57:04;4.27;;;0.97;;
10511;SDS011;5304;48.604;2.096;2023-04-01T04:59:52;4.47;;;1.37;;
10511;SDS011;5304;48.604;2.096;2023-04-01T05:02:36;3.10;;;1.40;;
10511;SDS011;5304;48.604;2.096;2023-04-01T05:05:20;4.00;;;1.37;;
10511;SDS011;5304;48.604;2.096;2023-04-01T05:08:05;5.40;;;1.17;;
10511;SDS011;5304;48.604;2.096;2023-04-01T05:10:50;5.63;;;1.30;;
10511;SDS011;5304;48.604;2.096;2023-04-01T05:13:34;4.13;;;1.17;;
10511;SDS011;5304;48.604;2.096;2023-04-01T05:16:19;5.97;;;1.50;;
10511;SDS011;5304;48.604;2.096;2023-04-01T05:19:04;8.17;;;1.90;;
10511;SDS011;5304;48.604;2.096;2023-04-01T05:21:50;3.60;;;1.83;;
10511;SDS011;5304;48.604;2.096;2023-04-01T05:24:36;7.57;;;1.80;;
10511;SDS011;5304;48.604;2.096;2023-04-01T05:27:20;4.70;;;1.37;;
10511;SDS011;5304;48.604;2.096;2023-04-01T05:30:05;3.73;;;1.30;;
10511;SDS011;5304;48.604;2.096;2023-04-01T05:32:50;4.03;;;1.70;;
10511;SDS011;5304;48.604;2.096;2023-04-01T05:35:35;6.57;;;1.53;;
10511;SDS011;5304;48.604;2.096;2023-04-01T05:38:19;8.37;;;1.67;;
10511;SDS011;5304;48.604;2.096;2023-04-01T05:41:04;4.73;;;1.60;;
10511;SDS011;5304;48.604;2.096;2023-04-01T05:43:48;4.53;;;1.27;;
10511;SDS011;5304;48.604;2.096;2023-04-01T05:46:33;6.10;;;1.80;;
10511;SDS011;5304;48.604;2.096;2023-04-01T05:49:18;3.87;;;1.37;;
10511;SDS011;5304;48.604;2.096;2023-04-01T05:52:02;4.27;;;1.20;;
10511;SDS011;5304;48.604;2.096;2023-04-01T05:54:46;6.43;;;1.40;;
10511;SDS011;5304;48.604;2.096;2023-04-01T05:57:31;7.93;;;1.60;;
10511;SDS011;5304;48.604;2.096;2023-04-01T06:00:16;6.53;;;1.40;;
10511;SDS011;5304;48.604;2.096;2023-04-01T06:03:01;7.20;;;1.97;;
10511;SDS011;5304;48.604;2.096;2023-04-01T06:05:46;6.07;;;1.60;;
10511;SDS011;5304;48.604;2.096;2023-04-01T06:08:31;7.93;;;1.90;;
10511;SDS011;5304;48.604;2.096;2023-04-01T06:14:30;6.57;;;1.60;;
10511;SDS011;5304;48.604;2.096;2023-04-01T06:20:45;2.90;;;1.20;;
10511;SDS011;5304;48.604;2.096;2023-04-01T06:24:06;5.00;;;1.00;;
10511;SDS011;5304;48.604;2.096;2023-04-01T06:39:49;4.63;;;1.57;;
10511;SDS011;5304;48.604;2.096;2023-04-01T06:45:53;3.40;;;1.27;;
10511;SDS011;5304;48.604;2.096;2023-04-01T06:55:15;4.93;;;1.80;;
10511;SDS011;5304;48.604;2.096;2023-04-01T06:58:01;5.10;;;1.40;;
10511;SDS011;5304;48.604;2.096;2023-04-01T07:00:53;1.53;;;1.23;;
10511;SDS011;5304;48.604;2.096;2023-04-01T07:07:08;4.90;;;1.43;;
10511;SDS011;5304;48.604;2.096;2023-04-01T07:09:59;5.27;;;1.50;;
10511;SDS011;5304;48.604;2.096;2023-04-01T07:12:50;6.30;;;1.40;;
10511;SDS011;5304;48.604;2.096;2023-04-01T07:15:39;5.40;;;1.30;;
10511;SDS011;5304;48.604;2.096;2023-04-01T07:18:29;5.57;;;1.90;;
10511;SDS011;5304;48.604;2.096;2023-04-01T07:24:17;4.03;;;1.57;;
10511;SDS011;5304;48.604;2.096;2023-04-01T07:27:11;2.93;;;1.50;;
10511;SDS011;5304;48.604;2.096;2023-04-01T07:29:58;3.50;;;1.40;;
10511;SDS011;5304;48.604;2.096;2023-04-01T07:32:47;4.47;;;1.60;;
10511;SDS011;5304;48.604;2.096;2023-04-01T07:35:40;3.23;;;1.43;;
10511;SDS011;5304;48.604;2.096;2023-04-01T07:38:33;1.93;;;1.50;;
10511;SDS011;5304;48.604;2.096;2023-04-01T07:47:19;3.77;;;1.43;;
10511;SDS011;5304;48.604;2.096;2023-04-01T07:50:55;4.30;;;1.50;;
10511;SDS011;5304;48.604;2.096;2023-04-01T07:53:46;6.13;;;1.40;;
10511;SDS011;5304;48.604;2.096;2023-04-01T08:21:28;6.70;;;1.50;;
10511;SDS011;5304;48.604;2.096;2023-04-01T08:24:35;2.77;;;1.50;;
10511;SDS011;5304;48.604;2.096;2023-04-01T08:27:44;6.10;;;1.63;;
10511;SDS011;5304;48.604;2.096;2023-04-01T08:30:52;5.60;;;1.63;;
10511;SDS011;5304;48.604;2.096;2023-04-01T08:33:41;8.60;;;1.70;;
10511;SDS011;5304;48.604;2.096;2023-04-01T08:36:29;4.70;;;1.50;;
10511;SDS011;5304;48.604;2.096;2023-04-01T08:39:18;3.67;;;1.50;;
10511;SDS011;5304;48.604;2.096;2023-04-01T08:46:11;6.63;;;1.50;;
10511;SDS011;5304;48.604;2.096;2023-04-01T08:53:06;4.70;;;1.60;;
10511;SDS011;5304;48.604;2.096;2023-04-01T08:56:03;4.27;;;1.93;;
10511;SDS011;5304;48.604;2.096;2023-04-01T08:59:11;4.73;;;1.77;;
10511;SDS011;5304;48.604;2.096;2023-04-01T09:02:22;7.20;;;1.83;;
10511;SDS011;5304;48.604;2.096;2023-04-01T09:05:43;7.07;;;1.77;;
10511;SDS011;5304;48.604;2.096;2023-04-01T09:20:39;5.50;;;2.03;;
10511;SDS011;5304;48.604;2.096;2023-04-01T09:36:38;3.37;;;1.80;;
10511;SDS011;5304;48.604;2.096;2023-04-01T09:39:34;4.23;;;1.47;;
10511;SDS011;5304;48.604;2.096;2023-04-01T09:45:48;5.93;;;1.47;;
10511;SDS011;5304;48.604;2.096;2023-04-01T09:55:19;7.27;;;1.73;;
10511;SDS011;5304;48.604;2.096;2023-04-01T10:19:36;3.40;;;1.33;;
10511;SDS011;5304;48.604;2.096;2023-04-01T10:37:44;3.20;;;1.90;;
10511;SDS011;5304;48.604;2.096;2023-04-01T11:33:15;2.90;;;1.20;;
10511;SDS011;5304;48.604;2.096;2023-04-01T11:48:13;2.47;;;1.20;;
10511;SDS011;5304;48.604;2.096;2023-04-01T11:57:44;4.10;;;1.40;;
10511;SDS011;5304;48.604;2.096;2023-04-01T12:12:42;3.83;;;1.00;;
10511;SDS011;5304;48.604;2.096;2023-04-01T12:18:53;1.77;;;1.03;;
10511;SDS011;5304;48.604;2.096;2023-04-01T12:37:05;1.97;;;1.20;;
10511;SDS011;5304;48.604;2.096;2023-04-01T12:55:48;4.00;;;1.13;;
10511;SDS011;5304;48.604;2.096;2023-04-01T13:04:39;2.80;;;1.47;;
10511;SDS011;5304;48.604;2.096;2023-04-01T13:10:57;2.57;;;1.20;;
10511;SDS011;5304;48.604;2.096;2023-04-01T13:16:48;2.43;;;1.20;;
10511;SDS011;5304;48.604;2.096;2023-04-01T13:20:02;7.00;;;1.43;;
10511;SDS011;5304;48.604;2.096;2023-04-01T13:29:18;2.47;;;1.10;;
10511;SDS011;5304;48.604;2.096;2023-04-01T13:35:38;2.17;;;1.10;;
10511;SDS011;5304;48.604;2.096;2023-04-01T13:41:18;3.80;;;1.40;;
10511;SDS011;5304;48.604;2.096;2023-04-01T13:44:11;1.93;;;1.03;;
10511;SDS011;5304;48.604;2.096;2023-04-01T14:05:32;3.07;;;1.13;;
10511;SDS011;5304;48.604;2.096;2023-04-01T14:08:52;3.83;;;1.47;;
10511;SDS011;5304;48.604;2.096;2023-04-01T14:12:15;4.67;;;1.73;;
10511;SDS011;5304;48.604;2.096;2023-04-01T14:22:03;1.87;;;1.50;;
10511;SDS011;5304;48.604;2.096;2023-04-01T14:49:32;2.63;;;1.13;;
10511;SDS011;5304;48.604;2.096;2023-04-01T14:52:28;2.93;;;1.23;;
10511;SDS011;5304;48.604;2.096;2023-04-01T14:55:27;3.73;;;1.57;;
10511;SDS011;5304;48.604;2.096;2023-04-01T14:58:19;7.50;;;1.50;;
10511;SDS011;5304;48.604;2.096;2023-04-01T15:22:49;1.87;;;1.20;;
10511;SDS011;5304;48.604;2.096;2023-04-01T15:31:54;4.03;;;1.43;;
10511;SDS011;5304;48.604;2.096;2023-04-01T15:35:01;2.03;;;1.60;;
10511;SDS011;5304;48.604;2.096;2023-04-01T15:38:11;3.13;;;1.43;;
10511;SDS011;5304;48.604;2.096;2023-04-01T15:42:04;2.20;;;1.27;;
10511;SDS011;5304;48.604;2.096;2023-04-01T15:44:58;2.40;;;1.10;;
10511;SDS011;5304;48.604;2.096;2023-04-01T15:48:01;2.90;;;1.47;;
10511;SDS011;5304;48.604;2.096;2023-04-01T16:00:53;1.27;;;1.03;;
10511;SDS011;5304;48.604;2.096;2023-04-01T16:07:01;2.20;;;1.30;;
10511;SDS011;5304;48.604;2.096;2023-04-01T16:10:09;4.03;;;1.33;;
10511;SDS011;5304;48.604;2.096;2023-04-01T16:19:31;3.93;;;1.30;;
10511;SDS011;5304;48.604;2.096;2023-04-01T16:23:02;4.73;;;1.40;;
10511;SDS011;5304;48.604;2.096;2023-04-01T16:32:21;5.80;;;1.27;;
10511;SDS011;5304;48.604;2.096;2023-04-01T16:35:23;4.40;;;1.47;;
10511;SDS011;5304;48.604;2.096;2023-04-01T16:42:28;5.07;;;1.67;;
10511;SDS011;5304;48.604;2.096;2023-04-01T16:47:45;3.73;;;1.97;;
10511;SDS011;5304;48.604;2.096;2023-04-01T16:51:08;4.23;;;1.87;;
10511;SDS011;5304;48.604;2.096;2023-04-01T16:53:47;5.13;;;1.40;;
10511;SDS011;5304;48.604;2.096;2023-04-01T16:56:39;2.47;;;1.43;;
10511;SDS011;5304;48.604;2.096;2023-04-01T17:02:33;4.30;;;1.40;;
10511;SDS011;5304;48.604;2.096;2023-04-01T17:05:21;3.30;;;1.47;;
10511;SDS011;5304;48.604;2.096;2023-04-01T17:08:31;4.13;;;1.40;;
10511;SDS011;5304;48.604;2.096;2023-04-01T17:11:23;4.30;;;1.57;;
10511;SDS011;5304;48.604;2.096;2023-04-01T17:17:18;5.03;;;1.97;;
10511;SDS011;5304;48.604;2.096;2023-04-01T17:31:53;3.63;;;1.20;;
10511;SDS011;5304;48.604;2.096;2023-04-01T17:35:02;4.10;;;1.50;;
10511;SDS011;5304;48.604;2.096;2023-04-01T17:50:07;1.93;;;1.77;;
10511;SDS011;5304;48.604;2.096;2023-04-01T17:59:35;2.10;;;1.57;;
10511;SDS011;5304;48.604;2.096;2023-04-01T18:02:28;3.60;;;1.80;;
10511;SDS011;5304;48.604;2.096;2023-04-01T18:05:23;1.90;;;1.80;;
10511;SDS011;5304;48.604;2.096;2023-04-01T18:11:12;2.40;;;1.67;;
10511;SDS011;5304;48.604;2.096;2023-04-01T18:22:58;2.67;;;1.97;;
10511;SDS011;5304;48.604;2.096;2023-04-01T18:25:49;6.27;;;2.10;;
10511;SDS011;5304;48.604;2.096;2023-04-01T18:28:38;3.30;;;2.13;;
10511;SDS011;5304;48.604;2.096;2023-04-01T18:31:37;3.87;;;1.90;;
10511;SDS011;5304;48.604;2.096;2023-04-01T18:37:22;2.23;;;1.83;;
10511;SDS011;5304;48.604;2.096;2023-04-01T18:40:21;7.43;;;2.83;;
10511;SDS011;5304;48.604;2.096;2023-04-01T18:43:22;4.00;;;3.37;;
10511;SDS011;5304;48.604;2.096;2023-04-01T18:46:27;5.37;;;1.97;;
10511;SDS011;5304;48.604;2.096;2023-04-01T18:49:33;5.40;;;2.90;;
10511;SDS011;5304;48.604;2.096;2023-04-01T18:52:37;4.13;;;3.10;;
10511;SDS011;5304;48.604;2.096;2023-04-01T18:58:26;5.93;;;2.50;;
10511;SDS011;5304;48.604;2.096;2023-04-01T19:04:23;3.97;;;2.20;;
10511;SDS011;5304;48.604;2.096;2023-04-01T19:07:29;3.77;;;2.27;;
10511;SDS011;5304;48.604;2.096;2023-04-01T19:13:50;6.83;;;2.77;;
10511;SDS011;5304;48.604;2.096;2023-04-01T19:16:48;3.53;;;2.20;;
10511;SDS011;5304;48.604;2.096;2023-04-01T19:22:45;5.67;;;3.10;;
10511;SDS011;5304;48.604;2.096;2023-04-01T19:26:01;5.27;;;2.90;;
10511;SDS011;5304;48.604;2.096;2023-04-01T19:31:46;4.03;;;2.50;;
10511;SDS011;5304;48.604;2.096;2023-04-01T19:43:33;6.83;;;2.70;;
10511;SDS011;5304;48.604;2.096;2023-04-01T19:52:54;7.13;;;2.17;;
10511;SDS011;5304;48.604;2.096;2023-04-01T19:55:39;8.10;;;2.57;;
10511;SDS011;5304;48.604;2.096;2023-04-01T20:04:58;5.23;;;2.43;;
10511;SDS011;5304;48.604;2.096;2023-04-01T20:07:59;5.97;;;2.27;;
10511;SDS011;5304;48.604;2.096;2023-04-01T20:26:19;8.37;;;2.93;;
10511;SDS011;5304;48.604;2.096;2023-04-01T20:32:10;4.73;;;2.67;;
10511;SDS011;5304;48.604;2.096;2023-04-01T20:41:31;10.40;;;2.90;;
10511;SDS011;5304;48.604;2.096;2023-04-01T21:00:36;6.63;;;3.40;;
10511;SDS011;5304;48.604;2.096;2023-04-01T21:03:42;8.57;;;3.33;;
10511;SDS011;5304;48.604;2.096;2023-04-01T21:09:52;6.73;;;3.60;;
10511;SDS011;5304;48.604;2.096;2023-04-01T21:16:08;6.70;;;3.70;;
10511;SDS011;5304;48.604;2.096;2023-04-01T21:25:08;8.43;;;4.10;;
10511;SDS011;5304;48.604;2.096;2023-04-01T21:40:56;11.73;;;4.47;;
10511;SDS011;5304;48.604;2.096;2023-04-01T22:08:38;8.17;;;4.30;;
10511;SDS011;5304;48.604;2.096;2023-04-01T22:11:40;10.67;;;4.80;;
10511;SDS011;5304;48.604;2.096;2023-04-01T22:17:31;7.87;;;4.70;;
10511;SDS011;5304;48.604;2.096;2023-04-01T22:20:27;8.37;;;4.83;;
10511;SDS011;5304;48.604;2.096;2023-04-01T22:23:29;10.77;;;5.07;;
10511;SDS011;5304;48.604;2.096;2023-04-01T22:26:25;10.60;;;5.07;;
10511;SDS011;5304;48.604;2.096;2023-04-01T22:29:27;8.93;;;5.00;;
10511;SDS011;5304;48.604;2.096;2023-04-01T22:32:23;11.27;;;5.40;;
10511;SDS011;5304;48.604;2.096;2023-04-01T22:38:30;10.33;;;4.90;;
10511;SDS011;5304;48.604;2.096;2023-04-01T22:44:34;9.10;;;5.40;;
10511;SDS011;5304;48.604;2.096;2023-04-01T22:47:46;10.80;;;5.93;;
10511;SDS011;5304;48.604;2.096;2023-04-01T22:51:03;9.43;;;6.20;;
10511;SDS011;5304;48.604;2.096;2023-04-01T22:54:15;9.87;;;5.80;;
10511;SDS011;5304;48.604;2.096;2023-04-01T22:57:12;11.00;;;5.40;;
10511;SDS011;5304;48.604;2.096;2023-04-01T23:00:05;11.93;;;5.57;;
10511;SDS011;5304;48.604;2.096;2023-04-01T23:03:19;10.23;;;5.33;;
10511;SDS011;5304;48.604;2.096;2023-04-01T23:06:14;14.83;;;5.43;;
10511;SDS011;5304;48.604;2.096;2023-04-01T23:09:10;11.40;;;5.97;;
10511;SDS011;5304;48.604;2.096;2023-04-01T23:12:01;11.97;;;5.77;;
10511;SDS011;5304;48.604;2.096;2023-04-01T23:14:55;11.60;;;5.43;;
10511;SDS011;5304;48.604;2.096;2023-04-01T23:20:50;9.57;;;5.03;;
10511;SDS011;5304;48.604;2.096;2023-04-01T23:30:03;11.23;;;5.30;;
10511;SDS011;5304;48.604;2.096;2023-04-01T23:33:27;9.80;;;5.60;;
10511;SDS011;5304;48.604;2.096;2023-04-01T23:36:13;8.70;;;5.00;;
10511;SDS011;5304;48.604;2.096;2023-04-01T23:39:02;12.67;;;5.37;;
10511;SDS011;5304;48.604;2.096;2023-04-01T23:41:53;9.50;;;5.90;;
10511;SDS011;5304;48.604;2.096;2023-04-01T23:44:40;12.40;;;5.60;;
10511;SDS011;5304;48.604;2.096;2023-04-01T23:47:36;8.97;;;5.77;;
10511;SDS011;5304;48.604;2.096;2023-04-01T23:50:23;8.47;;;5.10;;
10511;SDS011;5304;48.604;2.096;2023-04-01T23:53:20;10.83;;;5.60;;
10511;SDS011;5304;48.604;2.096;2023-04-01T23:56:08;7.20;;;4.90;;
10511;SDS011;5304;48.604;2.096;2023-04-01T23:58:53;15.00;;;5.80;;
